SVMG/PMV METAR and TAF weather

Enter ICAO airport designator
Station Type Date Time Source
SVMG METAR 2019/05/21 21:00 UTC NOAA

SVMG 212100Z /////KT 9999 BKN010 31/23 Q1012 NOSIG


Station Type Date Time Source
SVMG Decoded METAR 2019/05/21 21:00 UTC NOAA

Margarita / Del Carib, Venezuela (SVMG) 10-55N 063-59W
May 21, 2019 - 05:00 PM EDT / 2019.05.21 2100 UTC
Visibility: greater than 7 mile(s):0
Sky conditions: mostly cloudy
Temperature: 87 F (31 C)
Heat index: 93.9 F (34.4 C):1
Dew Point: 73 F (23 C)
Relative Humidity: 62%
Pressure (altimeter): 29.88 in. Hg (1012 hPa)
ob: SVMG 212100Z /////KT 9999 BKN010 31/23 Q1012 NOSIG
cycle: 21

Station Type Date Time Source
SVMG TAF 2019/05/21 18:00 UTC NOAA

TAF SVMG 211600Z 2118/2218 06013KT 9000 DZ FEW016 SCT020 TX29/2216Z TN26/2113Z
BECMG 2118/2122 06012KT 9000 DZ FEW016 SCT020

Example: see airport list